createdAt,value
2023-04-18T00:02:24.018Z,82.67
2023-04-18T00:05:27.946Z,82.33
2023-04-18T00:08:31.894Z,82.49
2023-04-18T00:11:35.645Z,82.79
2023-04-18T00:14:38.332Z,81.95
2023-04-18T00:17:41.196Z,82.79
2023-04-18T00:20:43.876Z,82.47
2023-04-18T00:23:46.680Z,82.95
2023-04-18T00:26:49.304Z,82.69
2023-04-18T00:29:53.201Z,83.69
2023-04-18T00:32:55.756Z,83.60
2023-04-18T00:36:01.273Z,83.98
2023-04-18T00:39:04.111Z,83.93
2023-04-18T00:42:07.347Z,84.16
2023-04-18T00:45:10.588Z,84.00
2023-04-18T00:48:14.262Z,84.00
2023-04-18T00:51:16.849Z,83.97
2023-04-18T00:54:20.260Z,83.95
2023-04-18T00:57:22.965Z,84.60
2023-04-18T01:00:26.142Z,84.78
2023-04-18T01:03:28.796Z,85.04
2023-04-18T01:06:32.188Z,85.02
2023-04-18T01:09:35.019Z,85.13
2023-04-18T01:12:38.435Z,85.36
2023-04-18T01:15:43.089Z,85.35
2023-04-18T01:18:46.424Z,85.18
2023-04-18T01:21:53.636Z,85.06
2023-04-18T01:24:57.262Z,85.16
2023-04-18T01:28:00.991Z,85.66
2023-04-18T01:31:04.591Z,86.65
2023-04-18T01:34:07.758Z,86.33
2023-04-18T01:37:10.633Z,86.99
2023-04-18T01:40:15.110Z,86.57
2023-04-18T01:43:19.739Z,86.57
2023-04-18T01:46:22.722Z,86.53
2023-04-18T01:49:25.633Z,86.26
2023-04-18T01:52:28.823Z,86.50
2023-04-18T01:55:31.699Z,86.06
2023-04-18T01:58:35.010Z,85.38
2023-04-18T02:01:37.861Z,85.24
2023-04-18T02:04:40.881Z,85.26
2023-04-18T02:07:45.740Z,84.97
2023-04-18T02:10:48.765Z,84.74
2023-04-18T02:13:52.148Z,84.92
2023-04-18T02:16:56.080Z,85.08
2023-04-18T02:20:01.181Z,84.72
2023-04-18T02:23:06.120Z,85.24
2023-04-18T02:26:08.560Z,85.28
2023-04-18T02:29:11.721Z,85.36
2023-04-18T02:32:14.489Z,85.61
2023-04-18T02:35:23.867Z,85.39
2023-04-18T02:38:27.979Z,85.56
2023-04-18T02:41:31.250Z,85.49
2023-04-18T02:44:33.914Z,86.06
2023-04-18T02:47:51.302Z,86.00
2023-04-18T02:51:05.982Z,86.44
2023-04-18T02:54:10.017Z,87.39
2023-04-18T02:57:14.693Z,88.27
2023-04-18T03:00:19.766Z,89.01
2023-04-18T03:03:26.774Z,88.71
2023-04-18T03:06:30.205Z,90.42
2023-04-18T03:09:40.148Z,89.58
2023-04-18T03:12:43.530Z,91.17
2023-04-18T03:15:46.609Z,90.84
2023-04-18T03:18:50.009Z,90.14
2023-04-18T03:21:53.571Z,90.54
2023-04-18T03:25:00.034Z,91.02
2023-04-18T03:28:08.837Z,90.60
2023-04-18T03:31:12.786Z,91.23
2023-04-18T03:34:17.031Z,91.02
2023-04-18T03:37:20.517Z,90.93
2023-04-18T03:40:25.354Z,90.83
2023-04-18T03:43:36.611Z,90.58
2023-04-18T03:46:40.024Z,90.99
2023-04-18T03:49:43.337Z,91.10
2023-04-18T03:52:47.995Z,91.47
2023-04-18T03:55:53.763Z,91.18
2023-04-18T03:58:59.091Z,91.79
2023-04-18T04:02:04.194Z,91.81
2023-04-18T04:05:12.044Z,91.67
2023-04-18T04:08:16.737Z,91.16
2023-04-18T04:11:21.130Z,91.11
2023-04-18T04:14:25.790Z,91.15
2023-04-18T04:17:29.161Z,91.07
2023-04-18T04:20:35.009Z,90.34
2023-04-18T04:23:42.775Z,90.50
2023-04-18T04:26:48.855Z,90.12
2023-04-18T04:29:54.721Z,90.06
2023-04-18T04:32:59.952Z,89.69
2023-04-18T04:36:03.508Z,89.22
2023-04-18T04:39:12.797Z,89.40
2023-04-18T04:42:25.309Z,89.17
2023-04-18T04:45:35.881Z,89.03
2023-04-18T04:48:46.017Z,88.93
2023-04-18T04:51:51.374Z,88.92
2023-04-18T04:54:56.404Z,89.28
2023-04-18T04:58:02.393Z,88.89
2023-04-18T05:01:13.724Z,88.76
2023-04-18T05:04:19.695Z,88.76
2023-04-18T05:07:25.317Z,88.80
2023-04-18T05:10:37.283Z,88.49
2023-04-18T05:13:49.146Z,88.92
2023-04-18T05:16:52.765Z,89.32
2023-04-18T05:19:55.842Z,89.06
2023-04-18T05:23:02.257Z,89.66
2023-04-18T05:26:07.194Z,90.20
2023-04-18T05:29:12.005Z,89.97
2023-04-18T05:32:20.816Z,89.72
2023-04-18T05:35:24.222Z,90.10
2023-04-18T05:38:27.930Z,90.24
2023-04-18T05:41:31.096Z,91.02
2023-04-18T05:44:34.361Z,90.93
2023-04-18T05:47:37.553Z,90.73
2023-04-18T05:50:42.176Z,91.51
2023-04-18T05:53:48.997Z,91.65
2023-04-18T05:56:54.934Z,91.97
2023-04-18T06:00:00.706Z,90.86
2023-04-18T06:03:22.384Z,91.33
2023-04-18T06:06:28.144Z,91.79
2023-04-18T06:09:32.147Z,91.74
2023-04-18T06:12:36.507Z,91.38
2023-04-18T06:15:39.891Z,90.94
2023-04-18T06:18:47.317Z,90.44
2023-04-18T06:21:55.691Z,90.58
2023-04-18T06:24:59.788Z,90.64
2023-04-18T06:28:04.667Z,90.59
2023-04-18T06:31:09.776Z,89.18
2023-04-18T06:34:14.208Z,88.69
2023-04-18T06:37:19.163Z,87.58
2023-04-18T06:40:30.661Z,86.92
2023-04-18T06:43:39.989Z,86.22
2023-04-18T06:46:45.868Z,84.80
2023-04-18T06:49:49.096Z,83.01
2023-04-18T06:52:52.257Z,76.48
2023-04-18T06:55:55.657Z,76.68
2023-04-18T06:58:58.516Z,77.33
2023-04-18T07:02:03.833Z,76.44
2023-04-18T07:05:10.960Z,77.24
2023-04-18T07:08:14.205Z,78.45
2023-04-18T07:11:19.708Z,77.67
2023-04-18T07:14:25.488Z,75.14
2023-04-18T07:17:29.260Z,75.08
2023-04-18T07:20:32.782Z,74.05
2023-04-18T07:23:36.947Z,70.49
2023-04-18T07:26:41.005Z,68.64
2023-04-18T07:29:43.738Z,69.54
2023-04-18T07:32:50.401Z,68.86
2023-04-18T07:35:56.061Z,69.79
2023-04-18T07:38:59.461Z,70.62
2023-04-18T07:42:06.933Z,70.09
2023-04-18T07:45:13.728Z,67.47
2023-04-18T07:48:28.268Z,63.69
2023-04-18T07:51:31.919Z,63.57
2023-04-18T07:54:36.863Z,64.35
2023-04-18T07:57:45.901Z,63.18
2023-04-18T08:00:50.798Z,63.36
2023-04-18T08:04:04.971Z,62.14
2023-04-18T08:07:09.247Z,61.87
2023-04-18T08:10:12.914Z,62.47
2023-04-18T08:13:16.820Z,62.12
2023-04-18T08:16:21.268Z,62.67
2023-04-18T08:19:27.486Z,62.31
2023-04-18T08:22:57.449Z,60.80
2023-04-18T08:26:07.735Z,61.41
2023-04-18T08:29:13.878Z,60.91
2023-04-18T08:32:16.962Z,62.16
2023-04-18T08:35:21.747Z,59.14
2023-04-18T08:38:25.363Z,59.32
2023-04-18T08:41:40.133Z,58.61
2023-04-18T08:44:45.341Z,57.95
2023-04-18T08:47:49.992Z,57.40
2023-04-18T08:50:57.589Z,56.54
2023-04-18T08:54:04.652Z,55.76
2023-04-18T08:57:13.770Z,56.67
2023-04-18T09:00:19.021Z,54.79
2023-04-18T09:03:44.214Z,54.35
2023-04-18T09:06:54.722Z,52.30
2023-04-18T09:09:58.350Z,53.22
2023-04-18T09:13:04.504Z,54.23
2023-04-18T09:16:08.730Z,53.01
2023-04-18T09:19:21.800Z,52.71
2023-04-18T09:22:24.748Z,51.82
2023-04-18T09:25:45.317Z,52.22
2023-04-18T09:28:53.971Z,51.23
2023-04-18T09:32:01.839Z,49.29
2023-04-18T09:35:06.469Z,49.20
2023-04-18T09:38:11.741Z,49.40
2023-04-18T09:41:19.137Z,47.56
2023-04-18T09:44:25.804Z,46.90
2023-04-18T09:47:32.673Z,47.78
2023-04-18T09:50:41.934Z,47.67
2023-04-18T09:53:50.310Z,49.20
2023-04-18T09:56:56.490Z,47.21
2023-04-18T10:00:17.130Z,46.76
2023-04-18T10:03:24.853Z,45.40
2023-04-18T10:06:28.919Z,45.25
2023-04-18T10:09:46.728Z,46.54
2023-04-18T10:12:52.237Z,43.69
2023-04-18T10:15:56.685Z,45.35
2023-04-18T10:19:25.426Z,44.31
2023-04-18T10:22:30.959Z,43.24
2023-04-18T10:25:39.973Z,43.76
2023-04-18T10:28:55.190Z,42.43
2023-04-18T10:32:06.311Z,42.74
2023-04-18T10:35:11.009Z,43.46
2023-04-18T10:38:23.525Z,42.58
2023-04-18T10:41:33.302Z,39.67
2023-04-18T10:44:38.072Z,40.52
2023-04-18T10:47:43.033Z,40.08
2023-04-18T10:51:15.847Z,40.72
2023-04-18T10:54:43.254Z,40.27
2023-04-18T10:57:59.968Z,42.15
2023-04-18T11:01:06.234Z,42.34
2023-04-18T11:04:16.160Z,41.98
2023-04-18T11:07:36.209Z,41.71
2023-04-18T11:10:41.008Z,43.65
2023-04-18T11:13:57.584Z,42.69
2023-04-18T11:17:25.530Z,42.19
2023-04-18T11:20:30.144Z,42.72
2023-04-18T11:23:33.117Z,42.63
2023-04-18T11:26:45.971Z,42.27
2023-04-18T11:29:54.078Z,41.89
2023-04-18T11:32:59.050Z,40.54
2023-04-18T11:36:03.497Z,40.68
2023-04-18T11:39:12.733Z,39.49
2023-04-18T11:42:28.758Z,39.85
2023-04-18T11:45:32.000Z,40.03
2023-04-18T11:48:48.040Z,38.70
2023-04-18T11:51:54.742Z,37.29
2023-04-18T11:55:18.640Z,37.05
2023-04-18T11:58:32.756Z,36.38
2023-04-18T12:01:41.801Z,34.04
2023-04-18T12:04:58.541Z,34.52
2023-04-18T12:08:21.498Z,35.57
2023-04-18T12:11:26.977Z,36.60
2023-04-18T12:14:44.655Z,37.30
2023-04-18T12:17:54.829Z,36.31
2023-04-18T12:21:04.980Z,36.36
2023-04-18T12:24:18.464Z,32.52
2023-04-18T12:27:48.040Z,32.51
2023-04-18T12:30:59.690Z,29.86
2023-04-18T12:34:06.928Z,30.80
2023-04-18T12:37:10.055Z,30.43
2023-04-18T12:40:18.976Z,29.99
2023-04-18T12:43:25.742Z,28.53
2023-04-18T12:46:35.898Z,30.71
2023-04-18T12:49:48.671Z,29.77
2023-04-18T12:52:54.383Z,29.24
2023-04-18T12:56:02.563Z,27.90
2023-04-18T12:59:12.938Z,30.29
2023-04-18T13:02:25.801Z,29.80
2023-04-18T13:05:33.560Z,30.85
2023-04-18T13:08:50.649Z,32.48
2023-04-18T13:11:55.498Z,32.21
2023-04-18T13:14:58.588Z,32.04
2023-04-18T13:18:07.991Z,32.21
2023-04-18T13:21:12.371Z,32.89
2023-04-18T13:24:19.945Z,32.48
2023-04-18T13:27:24.986Z,30.88
2023-04-18T13:30:30.440Z,30.57
2023-04-18T13:33:34.792Z,30.80
2023-04-18T13:36:40.646Z,31.58
2023-04-18T13:39:49.009Z,30.08
2023-04-18T13:42:52.770Z,30.84
2023-04-18T13:45:55.811Z,30.59
2023-04-18T13:49:01.164Z,32.37
2023-04-18T13:52:08.277Z,33.60
2023-04-18T13:55:13.705Z,34.68
2023-04-18T13:58:20.025Z,35.32
2023-04-18T14:01:23.633Z,35.10
2023-04-18T14:04:27.643Z,34.68
2023-04-18T14:07:31.764Z,33.87
2023-04-18T14:10:40.796Z,33.24
2023-04-18T14:13:45.789Z,31.02
2023-04-18T14:16:50.911Z,31.25
2023-04-18T14:20:05.120Z,31.57
2023-04-18T14:23:09.017Z,30.88
2023-04-18T14:26:14.656Z,30.65
2023-04-18T14:29:26.965Z,31.61
2023-04-18T14:32:35.486Z,31.73
2023-04-18T14:35:52.956Z,31.30
2023-04-18T14:38:56.567Z,31.25
2023-04-18T14:42:08.615Z,31.47
2023-04-18T14:45:27.751Z,31.89
2023-04-18T14:48:32.191Z,32.29
2023-04-18T14:51:40.709Z,32.15
2023-04-18T14:54:53.819Z,32.19
2023-04-18T14:58:04.463Z,32.65
2023-04-18T15:01:19.627Z,32.62
2023-04-18T15:04:23.191Z,32.12
2023-04-18T15:07:30.799Z,32.75
2023-04-18T15:10:47.624Z,33.32
2023-04-18T15:14:01.805Z,32.76
2023-04-18T15:17:09.767Z,33.80
2023-04-18T15:20:13.961Z,33.86
2023-04-18T15:23:27.927Z,34.75
2023-04-18T15:26:33.154Z,35.21
2023-04-18T15:29:36.896Z,35.14
2023-04-18T15:32:42.232Z,36.70
2023-04-18T15:35:52.672Z,36.94
2023-04-18T15:39:04.749Z,36.79
2023-04-18T15:42:14.289Z,36.99
2023-04-18T15:45:28.538Z,37.32
2023-04-18T15:48:34.485Z,37.38
2023-04-18T15:51:54.756Z,37.75
2023-04-18T15:54:58.700Z,38.35
2023-04-18T15:58:04.680Z,39.30
2023-04-18T16:01:17.786Z,39.01
2023-04-18T16:04:27.147Z,39.08
2023-04-18T16:07:30.765Z,39.17
2023-04-18T16:10:40.810Z,38.97
2023-04-18T16:13:45.429Z,38.80
2023-04-18T16:16:55.767Z,39.62
2023-04-18T16:20:12.765Z,40.37
2023-04-18T16:23:28.643Z,40.84
2023-04-18T16:26:44.839Z,39.90
2023-04-18T16:29:50.703Z,41.08
2023-04-18T16:32:54.485Z,41.03
2023-04-18T16:35:59.258Z,40.77
2023-04-18T16:39:16.795Z,40.67
2023-04-18T16:42:22.789Z,41.37
2023-04-18T16:45:26.690Z,41.44
2023-04-18T16:48:30.581Z,41.32
2023-04-18T16:51:37.411Z,41.58
2023-04-18T16:54:42.710Z,41.48
2023-04-18T16:57:53.701Z,41.39
2023-04-18T17:01:11.654Z,41.49
2023-04-18T17:04:25.008Z,41.07
2023-04-18T17:07:31.928Z,41.32
2023-04-18T17:10:46.067Z,41.46
2023-04-18T17:13:57.625Z,41.58
2023-04-18T17:17:07.693Z,41.31
2023-04-18T17:20:13.229Z,41.70
2023-04-18T17:23:25.848Z,41.01
2023-04-18T17:26:41.728Z,40.88
2023-04-18T17:29:52.619Z,41.75
2023-04-18T17:33:04.976Z,41.77
2023-04-18T17:36:14.864Z,42.16
2023-04-18T17:39:22.987Z,42.62
2023-04-18T17:42:31.990Z,42.70
2023-04-18T17:45:36.131Z,42.82
2023-04-18T17:48:49.679Z,43.28
2023-04-18T17:52:09.622Z,44.09
2023-04-18T17:55:14.324Z,44.33
2023-04-18T17:58:22.549Z,45.65
2023-04-18T18:01:34.827Z,46.86
2023-04-18T18:04:52.848Z,47.66
2023-04-18T18:07:58.830Z,48.90
2023-04-18T18:11:02.834Z,49.43
2023-04-18T18:14:06.839Z,50.55
2023-04-18T18:17:11.618Z,51.65
2023-04-18T18:20:15.964Z,51.95
2023-04-18T18:23:31.776Z,52.51
2023-04-18T18:27:00.927Z,52.68
2023-04-18T18:30:19.678Z,54.48
2023-04-18T18:33:39.776Z,54.97
2023-04-18T18:36:48.813Z,55.08
2023-04-18T18:40:01.722Z,54.93
2023-04-18T18:43:09.485Z,55.07
2023-04-18T18:46:23.349Z,55.79
2023-04-18T18:49:30.853Z,55.93
2023-04-18T18:52:39.747Z,56.28
2023-04-18T18:55:52.216Z,56.71
2023-04-18T18:59:01.828Z,57.40
2023-04-18T19:02:17.571Z,59.00
2023-04-18T19:05:24.184Z,57.76
2023-04-18T19:08:39.658Z,57.98
2023-04-18T19:11:44.617Z,58.10
2023-04-18T19:14:53.040Z,58.12
2023-04-18T19:18:10.975Z,58.49
2023-04-18T19:21:18.002Z,58.69
2023-04-18T19:24:21.462Z,55.09
2023-04-18T19:27:29.721Z,53.17
2023-04-18T19:30:42.886Z,51.99
2023-04-18T19:33:46.579Z,50.54
2023-04-18T19:37:07.664Z,50.49
2023-04-18T19:40:16.117Z,50.13
2023-04-18T19:43:29.670Z,51.22
2023-04-18T19:46:35.122Z,51.14
2023-04-18T19:49:58.389Z,50.60
2023-04-18T19:53:13.712Z,50.08
2023-04-18T19:56:30.772Z,50.18
2023-04-18T19:59:35.765Z,50.65
2023-04-18T20:02:41.895Z,50.74
2023-04-18T20:05:45.545Z,50.27
2023-04-18T20:08:54.722Z,50.51
2023-04-18T20:12:07.133Z,49.67
2023-04-18T20:15:12.027Z,49.86
2023-04-18T20:18:26.728Z,49.13
2023-04-18T20:21:40.690Z,49.54
2023-04-18T20:24:52.862Z,47.96
2023-04-18T20:27:59.252Z,48.66
2023-04-18T20:31:12.812Z,48.20
2023-04-18T20:34:17.472Z,48.44
2023-04-18T20:37:24.599Z,48.76
2023-04-18T20:40:29.413Z,48.56
2023-04-18T20:43:42.101Z,48.48
2023-04-18T20:46:48.348Z,48.79
2023-04-18T20:49:52.222Z,49.16
2023-04-18T20:52:57.853Z,49.00
2023-04-18T20:56:05.300Z,48.89
2023-04-18T20:59:10.339Z,48.84
2023-04-18T21:02:17.792Z,48.64
2023-04-18T21:05:23.456Z,48.96
2023-04-18T21:08:33.670Z,49.17
2023-04-18T21:11:36.264Z,48.64
2023-04-18T21:14:39.875Z,48.71
2023-04-18T21:17:43.011Z,48.89
2023-04-18T21:20:50.768Z,49.30
2023-04-18T21:23:53.699Z,49.66
2023-04-18T21:27:01.736Z,49.80
2023-04-18T21:30:07.414Z,50.19
2023-04-18T21:33:14.309Z,50.13
2023-04-18T21:36:19.018Z,50.23
2023-04-18T21:39:23.282Z,50.80
2023-04-18T21:42:28.771Z,51.25
2023-04-18T21:45:31.904Z,51.17
2023-04-18T21:48:35.227Z,51.38
2023-04-18T21:51:38.399Z,51.67
2023-04-18T21:54:41.921Z,52.22
2023-04-18T21:57:57.225Z,53.07
2023-04-18T22:01:10.468Z,53.30
2023-04-18T22:04:16.139Z,54.00
2023-04-18T22:07:20.132Z,53.97
2023-04-18T22:10:23.067Z,54.24
2023-04-18T22:13:34.704Z,54.11
2023-04-18T22:16:39.067Z,54.29
2023-04-18T22:19:44.809Z,54.13
2023-04-18T22:22:47.939Z,53.94
2023-04-18T22:25:54.944Z,54.22
2023-04-18T22:28:59.001Z,54.27
2023-04-18T22:32:03.004Z,54.37
2023-04-18T22:35:06.631Z,54.79
2023-04-18T22:38:10.522Z,55.93
2023-04-18T22:41:16.622Z,56.00
2023-04-18T22:44:19.536Z,55.50
2023-04-18T22:47:22.976Z,55.27
2023-04-18T22:50:26.284Z,55.57
2023-04-18T22:53:29.521Z,55.99
2023-04-18T22:56:31.995Z,56.84
2023-04-18T22:59:35.937Z,56.88
2023-04-18T23:02:39.219Z,57.07
2023-04-18T23:05:43.427Z,57.16
2023-04-18T23:08:46.012Z,57.40
2023-04-18T23:11:48.810Z,57.91
2023-04-18T23:14:51.457Z,57.55
2023-04-18T23:17:54.511Z,57.57
2023-04-18T23:20:57.234Z,57.59
2023-04-18T23:24:00.494Z,57.72
2023-04-18T23:27:03.643Z,57.59
2023-04-18T23:30:12.320Z,57.53
2023-04-18T23:33:15.328Z,57.59
2023-04-18T23:36:18.431Z,57.80
2023-04-18T23:39:21.906Z,58.00
2023-04-18T23:42:25.505Z,57.81
2023-04-18T23:45:31.761Z,57.72
2023-04-18T23:48:39.160Z,57.62
2023-04-18T23:51:41.787Z,57.37
2023-04-18T23:54:45.406Z,57.37
2023-04-18T23:57:49.215Z,57.36
